Time;durP1;ratioP1;P1;durP2;ratioP2;P2;SDS_P1;SDS_P2;PMS_P1;PMS_P2;Temp;Humidity;BMP_temperature;BMP_pressure;BME280_temperature;BME280_humidity;BME280_pressure;Samples;Min_cycle;Max_cycle;Signal;HPM_P1;HPM_P2
2023/06/21 00:07:31;;;;;;;;;;;18.50;99.90;;;;;;20828304;28;19922;-75
2023/06/21 00:17:32;;;;;;;;;;;18.30;99.90;;;;;;20828063;28;19917;-74
2023/06/21 00:27:32;;;;;;;;;;;18.10;99.90;;;;;;20818311;28;19913;-74
2023/06/21 00:37:37;;;;;;;;;;;18.10;99.90;;;;;;20830924;28;19924;-74
2023/06/21 00:47:40;;;;;;;;;;;17.90;99.90;;;;;;20758951;28;20004;-74
2023/06/21 00:57:40;;;;;;;;;;;17.80;99.90;;;;;;20742939;28;20270;-74
2023/06/21 01:08:01;;;;;;;;;;;17.90;99.90;;;;;;20819937;28;20376;-73
2023/06/21 01:18:07;;;;;;;;;;;17.80;99.90;;;;;;20823814;28;19924;-74
2023/06/21 01:28:23;;;;;;;;;;;17.80;99.90;;;;;;20839586;28;19914;-73
2023/06/21 01:38:24;;;;;;;;;;;17.90;99.90;;;;;;20860293;28;20058;-74
2023/06/21 01:48:25;;;;;;;;;;;18.10;99.90;;;;;;20838773;28;19956;-74
2023/06/21 01:58:26;;;;;;;;;;;18.10;99.90;;;;;;20838839;28;20000;-74
2023/06/21 02:08:27;;;;;;;;;;;18.10;99.90;;;;;;20837366;28;19924;-73
2023/06/21 02:18:28;;;;;;;;;;;18.20;99.90;;;;;;20838931;28;19959;-74
2023/06/21 02:28:29;;;;;;;;;;;18.20;99.90;;;;;;20852636;28;19976;-74
2023/06/21 02:38:31;;;;;;;;;;;18.10;99.90;;;;;;20850180;28;19917;-75
2023/06/21 02:48:33;;;;;;;;;;;18.20;99.90;;;;;;20833909;28;20017;-74
2023/06/21 02:58:33;;;;;;;;;;;18.30;99.90;;;;;;20850242;28;19948;-75
2023/06/21 03:08:36;;;;;;;;;;;18.30;99.90;;;;;;20815631;28;19937;-74
2023/06/21 03:18:37;;;;;;;;;;;18.20;99.90;;;;;;20758124;28;19921;-75
2023/06/21 03:28:39;;;;;;;;;;;18.20;99.90;;;;;;20801770;28;20431;-73
2023/06/21 03:38:42;;;;;;;;;;;18.20;99.90;;;;;;20820831;28;19917;-73
2023/06/21 03:48:43;;;;;;;;;;;18.20;99.90;;;;;;20825754;28;19967;-73
2023/06/21 03:58:44;;;;;;;;;;;18.20;99.90;;;;;;20775275;28;19921;-73
2023/06/21 04:08:45;;;;;;;;;;;18.10;99.90;;;;;;20843081;28;19940;-73
2023/06/21 04:18:46;;;;;;;;;;;18.10;99.90;;;;;;20839324;28;19917;-73
2023/06/21 04:28:49;;;;;;;;;;;18.30;99.90;;;;;;20836963;28;21447;-73
2023/06/21 04:38:50;;;;;;;;;;;18.50;99.90;;;;;;20812049;28;19935;-73
2023/06/21 04:48:51;;;;;;;;;;;18.70;99.90;;;;;;20822408;28;20316;-73
2023/06/21 04:58:51;;;;;;;;;;;18.90;99.90;;;;;;20839795;23;20300;-79
2023/06/21 05:08:53;;;;;;;;;;;18.90;99.90;;;;;;20783717;28;19917;-80
2023/06/21 05:18:54;;;;;;;;;;;19.00;99.90;;;;;;20746106;28;20031;-80
2023/06/21 05:28:54;;;;;;;;;;;19.20;99.90;;;;;;20751191;28;19997;-80
2023/06/21 05:38:55;;;;;;;;;;;19.60;99.90;;;;;;20681645;28;19924;-78
2023/06/21 05:48:56;;;;;;;;;;;19.80;99.90;;;;;;20737720;28;20375;-79
2023/06/21 05:58:57;;;;;;;;;;;20.20;99.90;;;;;;20727610;28;19918;-79
2023/06/21 06:08:57;;;;;;;;;;;20.10;99.90;;;;;;20728600;28;20437;-79
2023/06/21 06:18:58;;;;;;;;;;;20.30;99.90;;;;;;20761372;28;19921;-79
2023/06/21 06:28:59;;;;;;;;;;;20.30;99.90;;;;;;20754401;28;19967;-79
2023/06/21 06:39:00;;;;;;;;;;;20.70;99.90;;;;;;20759534;28;20010;-79
2023/06/21 06:49:00;;;;;;;;;;;21.20;99.90;;;;;;20761293;28;19945;-80
2023/06/21 06:59:01;;;;;;;;;;;21.60;99.90;;;;;;20748341;28;19929;-80
2023/06/21 07:09:02;;;;;;;;;;;21.10;99.90;;;;;;20761427;28;19914;-77
2023/06/21 07:19:03;;;;;;;;;;;19.20;99.90;;;;;;20751968;28;19977;-74
2023/06/21 07:29:03;;;;;;;;;;;18.50;99.90;;;;;;20750093;28;19917;-74
2023/06/21 07:39:04;;;;;;;;;;;18.50;99.90;;;;;;20747549;28;19917;-74
2023/06/21 07:49:05;;;;;;;;;;;18.80;99.90;;;;;;20744530;28;20012;-74
2023/06/21 07:59:06;;;;;;;;;;;18.60;99.90;;;;;;20737009;28;19925;-75
2023/06/21 08:09:07;;;;;;;;;;;18.60;99.90;;;;;;20735477;28;19926;-74
2023/06/21 08:19:07;;;;;;;;;;;18.60;99.90;;;;;;20741206;28;19918;-74
2023/06/21 08:29:08;;;;;;;;;;;18.70;99.90;;;;;;20742957;28;19921;-74
2023/06/21 08:39:09;;;;;;;;;;;18.80;99.90;;;;;;20732917;28;20308;-74
2023/06/21 08:49:13;;;;;;;;;;;19.40;99.90;;;;;;20733963;28;20372;-75
2023/06/21 08:59:19;;;;;;;;;;;20.50;99.90;;;;;;20741837;28;19979;-75
2023/06/21 09:09:22;;;;;;;;;;;22.00;99.90;;;;;;20741510;28;19967;-75
2023/06/21 09:19:23;;;;;;;;;;;22.60;99.90;;;;;;20740552;28;19918;-75
2023/06/21 09:29:23;;;;;;;;;;;22.30;99.90;;;;;;20737815;28;19917;-75
2023/06/21 09:39:25;;;;;;;;;;;22.80;99.90;;;;;;20723546;28;19938;-76
2023/06/21 09:49:27;;;;;;;;;;;23.60;99.90;;;;;;20753995;28;19913;-76
2023/06/21 09:59:27;;;;;;;;;;;23.40;99.90;;;;;;20755455;28;19961;-76
2023/06/21 10:09:34;;;;;;;;;;;23.90;99.90;;;;;;20753773;28;19924;-76
2023/06/21 10:19:35;;;;;;;;;;;23.70;99.90;;;;;;20734665;28;20356;-77
2023/06/21 10:29:37;;;;;;;;;;;23.90;99.90;;;;;;20743560;28;19913;-76
2023/06/21 10:39:39;;;;;;;;;;;24.10;99.90;;;;;;20744111;28;19924;-75
2023/06/21 10:49:40;;;;;;;;;;;25.10;99.90;;;;;;20740817;28;20384;-76
2023/06/21 10:59:41;;;;;;;;;;;25.90;99.90;;;;;;20765811;22;19972;-79
2023/06/21 11:09:42;;;;;;;;;;;24.60;99.90;;;;;;20748907;28;19949;-79
2023/06/21 11:19:43;;;;;;;;;;;24.50;99.90;;;;;;20659768;28;19921;-79
2023/06/21 11:29:54;;;;;;;;;;;24.80;99.90;;;;;;20687447;28;19960;-79
2023/06/21 11:40:02;;;;;;;;;;;26.70;99.90;;;;;;20756582;28;19949;-80
2023/06/21 11:50:12;;;;;;;;;;;26.60;99.90;;;;;;20776941;28;19959;-79
2023/06/21 12:00:13;;;;;;;;;;;27.40;99.90;;;;;;20753256;28;19985;-80
2023/06/21 12:10:14;;;;;;;;;;;27.90;99.90;;;;;;20750890;28;20665;-79
2023/06/21 12:20:14;;;;;;;;;;;28.90;99.90;;;;;;20765367;28;19917;-78
2023/06/21 12:30:15;;;;;;;;;;;27.80;99.90;;;;;;20750172;28;19914;-78
2023/06/21 12:40:17;;;;;;;;;;;27.50;99.90;;;;;;20765698;28;20377;-78
2023/06/21 12:50:19;;;;;;;;;;;28.20;99.90;;;;;;20749621;28;19960;-79
2023/06/21 13:00:20;;;;;;;;;;;28.70;99.90;;;;;;20750150;28;20014;-78
2023/06/21 13:10:20;;;;;;;;;;;28.50;99.90;;;;;;20767293;28;20280;-79
2023/06/21 13:20:21;;;;;;;;;;;28.60;99.90;;;;;;20748320;28;19918;-79
2023/06/21 13:30:22;;;;;;;;;;;28.70;99.90;;;;;;20764980;28;19913;-79
2023/06/21 13:40:23;;;;;;;;;;;28.60;99.90;;;;;;20731555;28;19956;-78
2023/06/21 13:50:24;;;;;;;;;;;28.60;99.90;;;;;;20749078;28;20360;-78
2023/06/21 14:00:24;;;;;;;;;;;27.40;99.90;;;;;;20750541;28;19917;-79
2023/06/21 14:10:25;;;;;;;;;;;28.00;99.90;;;;;;20746702;28;19914;-79
2023/06/21 14:20:26;;;;;;;;;;;28.00;99.90;;;;;;20655078;28;19918;-80
2023/06/21 14:30:26;;;;;;;;;;;27.50;99.90;;;;;;20671413;28;19933;-79
2023/06/21 14:40:30;;;;;;;;;;;27.30;99.90;;;;;;20759687;28;19917;-79
2023/06/21 14:50:31;;;;;;;;;;;27.30;99.90;;;;;;20773907;28;19914;-79
2023/06/21 15:00:32;;;;;;;;;;;26.70;99.90;;;;;;20727685;28;20017;-79
2023/06/21 15:10:32;;;;;;;;;;;26.10;99.90;;;;;;20738847;28;20003;-78
2023/06/21 15:20:34;;;;;;;;;;;25.80;99.90;;;;;;20727817;28;19925;-79
2023/06/21 15:30:34;;;;;;;;;;;25.40;99.90;;;;;;20739357;28;20292;-77
2023/06/21 15:40:36;;;;;;;;;;;24.80;99.90;;;;;;20752111;28;19917;-78
2023/06/21 15:50:37;;;;;;;;;;;23.70;99.90;;;;;;20732302;28;20280;-78
2023/06/21 16:00:38;;;;;;;;;;;23.90;99.90;;;;;;20753800;28;19924;-80
2023/06/21 16:10:39;;;;;;;;;;;23.60;99.90;;;;;;20755358;28;19944;-77
2023/06/21 16:20:39;;;;;;;;;;;24.10;99.90;;;;;;20747612;28;20028;-77
2023/06/21 16:30:40;;;;;;;;;;;24.30;99.90;;;;;;20752314;28;19921;-78
2023/06/21 16:40:40;;;;;;;;;;;24.50;99.90;;;;;;20743655;28;19921;-78
2023/06/21 16:50:41;;;;;;;;;;;25.00;99.90;;;;;;20727768;28;19960;-78
2023/06/21 17:00:42;;;;;;;;;;;24.90;99.90;;;;;;20764544;23;20391;-76
2023/06/21 17:10:42;;;;;;;;;;;24.40;99.90;;;;;;20803401;28;19913;-76
2023/06/21 17:20:43;;;;;;;;;;;24.10;99.90;;;;;;20743874;28;19949;-76
2023/06/21 17:30:44;;;;;;;;;;;23.20;99.90;;;;;;20740571;28;19919;-77
2023/06/21 17:40:45;;;;;;;;;;;23.00;99.90;;;;;;20735418;28;20398;-77
2023/06/21 17:50:45;;;;;;;;;;;23.00;99.90;;;;;;20733205;28;19913;-77
2023/06/21 18:00:46;;;;;;;;;;;22.80;99.90;;;;;;20745222;28;20024;-77
2023/06/21 18:10:47;;;;;;;;;;;22.70;99.90;;;;;;20755783;28;19920;-76
2023/06/21 18:20:48;;;;;;;;;;;22.30;99.90;;;;;;20753948;28;19960;-75
2023/06/21 18:30:49;;;;;;;;;;;22.20;99.90;;;;;;20747108;28;19928;-75
2023/06/21 18:40:50;;;;;;;;;;;22.20;99.90;;;;;;20720142;28;20004;-76
2023/06/21 18:50:51;;;;;;;;;;;21.90;99.90;;;;;;20722348;28;19929;-76
2023/06/21 19:00:52;;;;;;;;;;;21.90;99.90;;;;;;20725969;28;19972;-75
2023/06/21 19:10:53;;;;;;;;;;;21.70;99.90;;;;;;20708560;28;19976;-75
2023/06/21 19:20:53;;;;;;;;;;;21.70;99.90;;;;;;20720114;28;19917;-75
2023/06/21 19:30:54;;;;;;;;;;;21.40;99.90;;;;;;20713323;28;20598;-75
2023/06/21 19:40:55;;;;;;;;;;;21.40;99.90;;;;;;20717139;28;19924;-76
2023/06/21 19:50:55;;;;;;;;;;;21.40;99.90;;;;;;20695131;28;20320;-75
2023/06/21 20:00:56;;;;;;;;;;;21.20;99.90;;;;;;20705881;28;19925;-76
2023/06/21 20:10:57;;;;;;;;;;;21.20;99.90;;;;;;20705476;28;19914;-75
2023/06/21 20:20:57;;;;;;;;;;;21.00;99.90;;;;;;20676835;28;20233;-76
2023/06/21 20:30:58;;;;;;;;;;;20.80;99.90;;;;;;20705141;28;19914;-77
2023/06/21 20:41:02;;;;;;;;;;;20.70;99.90;;;;;;20711569;28;20391;-75
2023/06/21 20:51:03;;;;;;;;;;;20.40;99.90;;;;;;20707592;28;19965;-74
2023/06/21 21:01:03;;;;;;;;;;;20.30;99.90;;;;;;20706289;28;19924;-75
2023/06/21 21:11:04;;;;;;;;;;;20.20;99.90;;;;;;20713084;28;19913;-75
2023/06/21 21:21:08;;;;;;;;;;;20.40;99.90;;;;;;20744312;28;19926;-75
2023/06/21 21:31:09;;;;;;;;;;;20.30;99.90;;;;;;20743074;28;19913;-75
2023/06/21 21:41:10;;;;;;;;;;;20.40;99.90;;;;;;20765325;28;20457;-75
2023/06/21 21:51:10;;;;;;;;;;;20.40;99.90;;;;;;20761280;28;19980;-75
2023/06/21 22:01:11;;;;;;;;;;;20.00;99.90;;;;;;20758104;28;19959;-75
2023/06/21 22:11:12;;;;;;;;;;;19.70;99.90;;;;;;20761484;28;19925;-75
2023/06/21 22:21:12;;;;;;;;;;;19.80;99.90;;;;;;20772222;28;19939;-75
2023/06/21 22:31:14;;;;;;;;;;;19.70;99.90;;;;;;20755793;28;20056;-75
2023/06/21 22:41:16;;;;;;;;;;;20.10;99.90;;;;;;20755342;28;20025;-75
2023/06/21 22:51:17;;;;;;;;;;;19.90;99.90;;;;;;20754107;28;20024;-75
2023/06/21 23:01:18;;;;;;;;;;;20.10;99.90;;;;;;20748934;22;19942;-78
2023/06/21 23:11:25;;;;;;;;;;;19.80;99.90;;;;;;20881188;28;19935;-77
2023/06/21 23:21:26;;;;;;;;;;;19.30;99.90;;;;;;20929486;28;19996;-78
2023/06/21 23:31:33;;;;;;;;;;;18.80;99.90;;;;;;20855346;28;20476;-77
2023/06/21 23:41:36;;;;;;;;;;;18.50;99.90;;;;;;20871433;28;19917;-77
2023/06/21 23:51:37;;;;;;;;;;;18.40;99.90;;;;;;20928519;28;19913;-76
